Burton, Illinois
Current Conditions -  °F | °C
As of 5:54 AM on Monday 22 Dec 2014 (Local Time) from KUIN Reporting Station
Overcast Overcast  
Wind Chill: 32°   Ceiling: 5000
Heat Index: 39°   Visibility: 9mi
Dew Point: 32°   Wind: 12mph
Humidity: 76%   Direction: 140°SE
Pressure: 29.75"   Gusts: NA
Location:  39.9317°N, 91.2953°W
Report Text: KUIN 221154Z AUTO 14010KT 9SM SCT036 OVC050 04/00 A2975 RMK AO2 SLP079 T00390000 10044 20039 56024
Loading
Personal Weather Stations






























Interactive Weather Map New forecast layout! Learn more

10-Day Weather Forecast

Advertisements
Track Severe Weather on mobile